Time;durP1;ratioP1;P1;durP2;ratioP2;P2;SDS_P1;SDS_P2;PMS_P1;PMS_P2;Temp;Humidity;BMP_temperature;BMP_pressure;BME280_temperature;BME280_humidity;BME280_pressure;Samples;Min_cycle;Max_cycle;Signal;HPM_P1;HPM_P2
2023/12/16 00:02:23;;;;;;;15.23;6.23;;;7.00;99.90;;;;;;5129601;27;20195;-62
2023/12/16 00:04:52;;;;;;;10.87;6.00;;;7.00;99.90;;;;;;5129721;27;20244;-62
2023/12/16 00:07:20;;;;;;;16.00;5.80;;;7.00;99.90;;;;;;5129877;27;20184;-61
2023/12/16 00:09:50;;;;;;;11.97;5.80;;;7.10;99.90;;;;;;5129403;27;20199;-62
2023/12/16 00:12:19;;;;;;;16.00;7.33;;;7.00;99.90;;;;;;5129683;27;20253;-63
2023/12/16 00:14:48;;;;;;;12.33;5.77;;;7.10;99.90;;;;;;5112276;27;20199;-60
2023/12/16 00:17:16;;;;;;;20.87;6.30;;;7.10;99.90;;;;;;5113340;28;20199;-60
2023/12/16 00:19:45;;;;;;;14.73;6.10;;;7.10;99.90;;;;;;5129371;27;20200;-61
2023/12/16 00:22:14;;;;;;;17.87;6.33;;;7.10;99.90;;;;;;5109185;28;20223;-62
2023/12/16 00:24:43;;;;;;;25.40;12.70;;;7.10;99.90;;;;;;5108870;28;20199;-60
2023/12/16 00:27:13;;;;;;;24.13;8.73;;;7.10;99.90;;;;;;5110844;28;20203;-62
2023/12/16 00:29:41;;;;;;;11.77;5.60;;;7.10;99.90;;;;;;5128845;28;20195;-62
2023/12/16 00:32:10;;;;;;;13.07;4.97;;;7.00;99.90;;;;;;5129125;28;20203;-62
2023/12/16 00:34:39;;;;;;;15.77;6.00;;;6.90;99.90;;;;;;5129461;28;20207;-63
2023/12/16 00:37:08;;;;;;;18.23;5.33;;;6.80;99.90;;;;;;5129500;28;20319;-63
2023/12/16 00:39:36;;;;;;;9.20;4.63;;;6.80;99.90;;;;;;5129188;28;20201;-64
2023/12/16 00:42:05;;;;;;;17.20;5.20;;;6.90;99.90;;;;;;5129228;28;20234;-63
2023/12/16 00:44:36;;;;;;;14.40;5.30;;;6.80;99.90;;;;;;5129266;28;20206;-61
2023/12/16 00:47:05;;;;;;;10.87;4.80;;;6.80;99.90;;;;;;5129158;28;20216;-63
2023/12/16 00:49:34;;;;;;;16.70;5.00;;;6.70;99.90;;;;;;5129194;28;20203;-62
2023/12/16 00:52:03;;;;;;;13.73;4.73;;;6.80;99.90;;;;;;5129467;28;20583;-62
2023/12/16 00:54:31;;;;;;;12.53;4.63;;;6.80;99.90;;;;;;5129288;28;20187;-62
2023/12/16 00:57:00;;;;;;;14.93;5.00;;;6.70;99.90;;;;;;5129113;28;20247;-63
2023/12/16 00:59:29;;;;;;;8.17;4.60;;;6.70;99.90;;;;;;5128854;28;20197;-62
2023/12/16 01:01:59;;;;;;;11.73;4.83;;;6.70;99.90;;;;;;5128819;28;20311;-62
2023/12/16 01:04:28;;;;;;;12.00;4.90;;;6.70;99.90;;;;;;5129024;28;20673;-62
2023/12/16 01:06:56;;;;;;;12.13;4.60;;;6.70;99.90;;;;;;5132326;27;20266;-62
2023/12/16 01:09:25;;;;;;;12.17;5.13;;;6.70;99.90;;;;;;5132730;27;20210;-62
2023/12/16 01:11:54;;;;;;;11.33;4.90;;;6.80;99.90;;;;;;5132982;27;20286;-59
2023/12/16 01:14:22;;;;;;;13.33;4.90;;;6.70;99.90;;;;;;5132926;27;20199;-60
2023/12/16 01:16:51;;;;;;;14.93;5.97;;;6.70;99.90;;;;;;5132704;27;20242;-61
2023/12/16 01:19:21;;;;;;;16.23;5.27;;;6.70;99.90;;;;;;5133001;27;20628;-63
2023/12/16 01:21:49;;;;;;;17.17;5.40;;;6.80;99.90;;;;;;5132872;27;20283;-62
2023/12/16 01:24:18;;;;;;;10.93;5.27;;;6.80;99.90;;;;;;5132784;27;20203;-61
2023/12/16 01:26:47;;;;;;;12.30;5.20;;;6.80;99.90;;;;;;5132735;27;20191;-62
2023/12/16 01:29:15;;;;;;;17.67;4.97;;;6.90;99.90;;;;;;5132512;27;20194;-62
2023/12/16 01:31:44;;;;;;;17.10;5.13;;;6.90;99.90;;;;;;5132290;27;20612;-63
2023/12/16 01:34:13;;;;;;;18.17;5.57;;;6.90;99.90;;;;;;5132464;27;20295;-63
2023/12/16 01:36:43;;;;;;;17.53;5.33;;;6.90;99.90;;;;;;5132133;27;20224;-60
2023/12/16 01:39:12;;;;;;;16.43;5.43;;;6.90;99.90;;;;;;5132551;27;20257;-62
2023/12/16 01:41:41;;;;;;;17.97;5.07;;;6.90;99.90;;;;;;5132259;27;20596;-62
2023/12/16 01:44:09;;;;;;;16.27;5.67;;;6.90;99.90;;;;;;5132339;27;20285;-62
2023/12/16 01:46:38;;;;;;;14.47;5.43;;;6.90;99.90;;;;;;5131936;27;20249;-60
2023/12/16 01:49:08;;;;;;;47.83;22.03;;;7.00;99.90;;;;;;5132361;27;20261;-62
2023/12/16 01:51:37;;;;;;;19.70;5.83;;;6.90;99.90;;;;;;5132159;27;20737;-62
2023/12/16 01:54:08;;;;;;;19.27;5.57;;;7.00;99.90;;;;;;5132191;27;20273;-60
2023/12/16 01:56:38;;;;;;;21.17;6.47;;;6.90;99.90;;;;;;5131927;27;20216;-63
2023/12/16 01:59:07;;;;;;;19.17;5.53;;;6.90;99.90;;;;;;5131848;27;20200;-63
2023/12/16 02:01:36;;;;;;;13.93;5.60;;;6.90;99.90;;;;;;5131669;27;20229;-61
2023/12/16 02:04:05;;;;;;;20.90;5.40;;;7.00;99.90;;;;;;5131828;27;20325;-64
2023/12/16 02:06:34;;;;;;;19.83;6.30;;;7.10;99.90;;;;;;5132093;27;20213;-62
2023/12/16 02:09:03;;;;;;;12.57;5.33;;;7.10;99.90;;;;;;5132004;27;20675;-62
2023/12/16 02:11:33;;;;;;;18.77;5.43;;;7.10;99.90;;;;;;5131890;27;20204;-62
2023/12/16 02:14:01;;;;;;;12.97;5.60;;;7.00;99.90;;;;;;5131949;27;20202;-63
2023/12/16 02:16:30;;;;;;;22.70;5.70;;;7.10;99.90;;;;;;5130976;27;20621;-61
2023/12/16 02:18:59;;;;;;;13.73;5.83;;;7.00;99.90;;;;;;5131324;27;20731;-62
2023/12/16 02:21:28;;;;;;;17.77;6.80;;;7.10;99.90;;;;;;5131623;27;20203;-61
2023/12/16 02:23:58;;;;;;;21.47;7.20;;;7.10;99.90;;;;;;5131925;27;20288;-62
2023/12/16 02:26:26;;;;;;;16.20;5.43;;;7.00;99.90;;;;;;5131595;27;20209;-62
2023/12/16 02:28:55;;;;;;;12.27;5.10;;;7.00;99.90;;;;;;5131638;27;20207;-62
2023/12/16 02:31:24;;;;;;;13.57;4.90;;;7.00;99.90;;;;;;5131052;27;20964;-62
2023/12/16 02:33:52;;;;;;;14.00;5.77;;;7.10;99.90;;;;;;5131505;27;20208;-64
2023/12/16 02:36:21;;;;;;;15.33;4.70;;;7.00;99.90;;;;;;5131286;27;21069;-64
2023/12/16 02:38:50;;;;;;;10.67;5.30;;;7.10;99.90;;;;;;5131372;27;20859;-63
2023/12/16 02:41:21;;;;;;;23.70;5.23;;;7.10;99.90;;;;;;5131157;27;20687;-63
2023/12/16 02:43:49;;;;;;;16.40;4.80;;;7.20;99.90;;;;;;5131426;27;20209;-63
2023/12/16 02:46:18;;;;;;;12.03;4.43;;;7.30;99.90;;;;;;5131011;27;20233;-62
2023/12/16 02:48:47;;;;;;;16.10;5.00;;;7.40;99.90;;;;;;5131272;27;20221;-63
2023/12/16 02:51:19;;;;;;;19.43;5.57;;;7.30;99.90;;;;;;5131290;27;20689;-64
2023/12/16 02:53:48;;;;;;;14.33;5.23;;;7.20;99.90;;;;;;5130801;27;20281;-64
2023/12/16 02:56:17;;;;;;;16.10;4.50;;;7.10;99.90;;;;;;5130928;27;20579;-63
2023/12/16 02:58:47;;;;;;;15.43;4.73;;;7.10;99.90;;;;;;5112350;27;20732;-63
2023/12/16 03:01:16;;;;;;;18.77;5.73;;;7.10;99.90;;;;;;5130439;27;20197;-64
2023/12/16 03:03:45;;;;;;;13.23;4.67;;;7.10;99.90;;;;;;5117373;27;20224;-63
2023/12/16 03:06:13;;;;;;;16.10;4.73;;;7.10;99.90;;;;;;5110092;28;20762;-63
2023/12/16 03:08:42;;;;;;;14.17;4.20;;;7.10;99.90;;;;;;5110053;28;20645;-63
2023/12/16 03:11:11;;;;;;;12.10;4.23;;;7.10;99.90;;;;;;5124964;27;20203;-64
2023/12/16 03:13:39;;;;;;;16.43;4.30;;;7.10;99.90;;;;;;5130468;27;20299;-63
2023/12/16 03:16:11;;;;;;;12.27;4.20;;;7.10;99.90;;;;;;5130310;27;20283;-63
2023/12/16 03:18:40;;;;;;;19.07;5.20;;;7.20;99.90;;;;;;5130486;27;20223;-63
2023/12/16 03:21:09;;;;;;;16.20;5.07;;;7.10;99.90;;;;;;5130195;27;20292;-63
2023/12/16 03:23:37;;;;;;;11.60;5.13;;;7.20;99.90;;;;;;5127323;27;20295;-60
2023/12/16 03:26:07;;;;;;;19.60;4.87;;;7.10;99.90;;;;;;5109806;28;20195;-64
2023/12/16 03:28:36;;;;;;;15.80;4.70;;;7.10;99.90;;;;;;5110245;27;20196;-62
2023/12/16 03:31:04;;;;;;;18.53;5.50;;;7.20;99.90;;;;;;5130309;27;20195;-63
2023/12/16 03:33:35;;;;;;;13.43;4.73;;;7.30;99.90;;;;;;5130031;27;20192;-64
2023/12/16 03:36:04;;;;;;;14.63;4.70;;;7.30;99.90;;;;;;5130226;27;20209;-63
2023/12/16 03:38:32;;;;;;;14.83;4.57;;;7.30;99.90;;;;;;5129801;27;20227;-64
2023/12/16 03:41:01;;;;;;;13.83;4.57;;;7.30;99.90;;;;;;5129672;27;20235;-62
2023/12/16 03:43:29;;;;;;;9.50;3.83;;;7.20;99.90;;;;;;5129849;27;20192;-64
2023/12/16 03:45:58;;;;;;;13.50;4.60;;;7.20;99.90;;;;;;5129883;27;20196;-63
2023/12/16 03:48:27;;;;;;;16.97;4.73;;;7.30;99.90;;;;;;5129875;27;20253;-63
2023/12/16 03:50:57;;;;;;;15.93;4.90;;;7.30;99.90;;;;;;5129801;27;20180;-63
2023/12/16 03:53:25;;;;;;;18.07;4.77;;;7.30;99.90;;;;;;5129834;27;20184;-63
2023/12/16 03:55:54;;;;;;;15.83;4.73;;;7.40;99.90;;;;;;5129620;27;20725;-63
2023/12/16 03:58:23;;;;;;;18.17;4.43;;;7.30;99.90;;;;;;5129856;27;20323;-65
2023/12/16 04:00:51;;;;;;;13.17;5.07;;;7.30;99.90;;;;;;5129787;27;20296;-63
2023/12/16 04:03:20;;;;;;;16.83;5.23;;;7.30;99.90;;;;;;5129329;27;20251;-63
2023/12/16 04:05:49;;;;;;;13.10;4.27;;;7.30;99.90;;;;;;5129537;27;20552;-63
2023/12/16 04:08:19;;;;;;;17.73;4.77;;;7.30;99.90;;;;;;5129502;27;20206;-64
2023/12/16 04:10:48;;;;;;;11.83;4.40;;;7.30;99.90;;;;;;5129527;27;20222;-63
2023/12/16 04:13:16;;;;;;;13.90;5.13;;;7.30;99.90;;;;;;5129481;27;20687;-63
2023/12/16 04:15:52;;;;;;;13.13;4.77;;;7.40;99.90;;;;;;5129452;27;20725;-66
2023/12/16 04:18:21;;;;;;;14.50;4.97;;;7.30;99.90;;;;;;5129114;27;20228;-64
2023/12/16 04:20:50;;;;;;;18.53;5.63;;;7.30;99.90;;;;;;5129667;27;20216;-64
2023/12/16 04:23:20;;;;;;;12.30;4.67;;;7.40;99.90;;;;;;5129573;27;20195;-65
2023/12/16 04:25:48;;;;;;;15.87;5.17;;;7.40;99.90;;;;;;5129529;28;20189;-64
2023/12/16 04:28:17;;;;;;;18.23;5.60;;;7.40;99.90;;;;;;5129229;28;20205;-64
2023/12/16 04:30:45;;;;;;;15.67;4.17;;;7.40;99.90;;;;;;5129465;28;20203;-64
2023/12/16 04:33:14;;;;;;;14.57;4.30;;;7.40;99.90;;;;;;5128924;28;20729;-65
2023/12/16 04:35:43;;;;;;;11.87;5.20;;;7.60;99.90;;;;;;5129362;28;20223;-64
2023/12/16 04:38:11;;;;;;;12.33;4.40;;;7.50;99.90;;;;;;5129228;28;20593;-65
2023/12/16 04:40:42;;;;;;;10.43;4.33;;;7.50;99.90;;;;;;5130191;27;20237;-63
2023/12/16 04:43:10;;;;;;;16.00;4.73;;;7.60;99.90;;;;;;5133589;27;20197;-64
2023/12/16 04:45:39;;;;;;;16.67;4.67;;;7.40;99.90;;;;;;5131887;27;20206;-63
2023/12/16 04:48:07;;;;;;;12.83;5.07;;;7.40;99.90;;;;;;5133997;27;20281;-63
2023/12/16 04:50:36;;;;;;;16.73;5.27;;;7.40;99.90;;;;;;5133339;27;20551;-61
2023/12/16 04:53:04;;;;;;;18.57;4.57;;;7.50;99.90;;;;;;5133393;27;20208;-59
2023/12/16 04:55:33;;;;;;;13.53;4.70;;;7.40;99.90;;;;;;5133264;27;20226;-60
2023/12/16 04:58:04;;;;;;;16.57;4.70;;;7.50;99.90;;;;;;5133254;27;20341;-60
2023/12/16 05:00:32;;;;;;;13.50;4.73;;;7.40;99.90;;;;;;5133087;27;20225;-59
2023/12/16 05:03:01;;;;;;;19.03;5.20;;;7.40;99.90;;;;;;5132917;27;20211;-59
2023/12/16 05:05:30;;;;;;;16.80;5.23;;;7.50;99.90;;;;;;5133254;27;20244;-60
2023/12/16 05:07:58;;;;;;;18.17;4.67;;;7.50;99.90;;;;;;5133201;27;20224;-60
2023/12/16 05:10:27;;;;;;;16.33;4.60;;;7.40;99.90;;;;;;5133125;27;20256;-62
2023/12/16 05:12:55;;;;;;;10.00;4.30;;;7.40;99.90;;;;;;5132847;27;20673;-63
2023/12/16 05:15:25;;;;;;;11.57;4.43;;;7.40;99.90;;;;;;5132736;27;20742;-61
2023/12/16 05:17:54;;;;;;;15.63;4.47;;;7.40;99.90;;;;;;5132549;27;20242;-61
2023/12/16 05:20:23;;;;;;;16.60;5.17;;;7.40;99.90;;;;;;5132643;27;20583;-61
2023/12/16 05:22:51;;;;;;;15.53;4.77;;;7.40;99.90;;;;;;5132962;27;20189;-64
2023/12/16 05:25:20;;;;;;;20.77;4.97;;;7.40;99.90;;;;;;5132789;27;20200;-64
2023/12/16 05:27:48;;;;;;;14.57;4.97;;;7.40;99.90;;;;;;5132625;27;20199;-63
2023/12/16 05:30:17;;;;;;;16.43;5.10;;;7.40;99.90;;;;;;5131889;27;20659;-63
2023/12/16 05:32:47;;;;;;;16.00;5.03;;;7.50;99.90;;;;;;5111468;28;20674;-63
2023/12/16 05:35:16;;;;;;;14.40;4.70;;;7.50;99.90;;;;;;5112215;27;20199;-64
2023/12/16 05:37:45;;;;;;;12.47;5.30;;;7.40;99.90;;;;;;5122540;27;20189;-64
2023/12/16 05:40:13;;;;;;;15.43;5.83;;;7.40;99.90;;;;;;5123343;27;20944;-64
2023/12/16 05:42:42;;;;;;;13.37;5.57;;;7.40;99.90;;;;;;5111735;28;20777;-63
2023/12/16 05:45:11;;;;;;;20.00;5.10;;;7.40;99.90;;;;;;5116056;27;20200;-64
2023/12/16 05:47:38;;;;;;;20.90;5.67;;;7.40;99.90;;;;;;5131935;27;20275;-62
2023/12/16 05:50:10;;;;;;;18.87;5.37;;;7.50;99.90;;;;;;5113835;27;20205;-64
2023/12/16 05:52:38;;;;;;;16.03;5.47;;;7.50;99.90;;;;;;5131768;27;20197;-64
2023/12/16 05:55:07;;;;;;;9.07;4.50;;;7.40;99.90;;;;;;5131812;27;20566;-65
2023/12/16 05:57:36;;;;;;;14.00;3.87;;;7.40;99.90;;;;;;5131870;27;20675;-63
2023/12/16 06:00:08;;;;;;;17.80;4.63;;;7.50;99.90;;;;;;5117087;27;20309;-63
2023/12/16 06:02:37;;;;;;;14.27;4.70;;;7.50;99.90;;;;;;5111096;28;20197;-65
2023/12/16 06:05:06;;;;;;;11.37;4.73;;;7.50;99.90;;;;;;5123752;27;20666;-63
2023/12/16 06:07:37;;;;;;;12.07;4.77;;;7.40;99.90;;;;;;5127247;27;20197;-63
2023/12/16 06:10:06;;;;;;;11.00;4.87;;;7.40;99.90;;;;;;5111250;28;20194;-60
2023/12/16 06:12:35;;;;;;;11.80;4.30;;;7.40;99.90;;;;;;5123299;27;20207;-63
2023/12/16 06:15:05;;;;;;;11.00;4.97;;;7.40;99.90;;;;;;5131733;27;20199;-62
2023/12/16 06:17:33;;;;;;;10.07;4.40;;;7.40;99.90;;;;;;5118931;27;20572;-63
2023/12/16 06:20:04;;;;;;;13.83;5.20;;;7.50;99.90;;;;;;5131144;27;20596;-64
2023/12/16 06:22:33;;;;;;;15.17;5.13;;;7.50;99.90;;;;;;5131631;27;20194;-62
2023/12/16 06:25:03;;;;;;;15.20;5.03;;;7.50;99.90;;;;;;5131612;27;20195;-64
2023/12/16 06:27:32;;;;;;;10.33;4.47;;;7.50;99.90;;;;;;5131605;27;20196;-62
2023/12/16 06:30:01;;;;;;;10.47;4.83;;;7.40;99.90;;;;;;5131583;27;20735;-63
2023/12/16 06:32:29;;;;;;;13.37;6.00;;;7.40;99.90;;;;;;5129323;27;20203;-63
2023/12/16 06:34:59;;;;;;;16.97;5.57;;;7.40;99.90;;;;;;5131398;27;20198;-63
2023/12/16 06:37:28;;;;;;;20.67;6.67;;;7.40;99.90;;;;;;5130585;27;20196;-65
2023/12/16 06:39:56;;;;;;;17.57;5.73;;;7.40;99.90;;;;;;5129255;27;20706;-65
2023/12/16 06:42:28;;;;;;;16.13;5.33;;;7.40;99.90;;;;;;5122185;27;20337;-64
2023/12/16 06:44:57;;;;;;;14.57;6.90;;;7.50;99.90;;;;;;5121816;27;20771;-64
2023/12/16 06:47:25;;;;;;;14.77;5.47;;;7.40;99.90;;;;;;5131509;27;20206;-62
2023/12/16 06:49:54;;;;;;;15.77;6.07;;;7.40;99.90;;;;;;5130541;27;20199;-64
2023/12/16 06:52:23;;;;;;;15.20;6.00;;;7.50;99.90;;;;;;5130759;27;20193;-64
2023/12/16 06:54:51;;;;;;;18.97;6.43;;;7.50;99.90;;;;;;5130551;27;20229;-64
2023/12/16 06:57:20;;;;;;;22.23;6.37;;;7.50;99.90;;;;;;5129531;27;20194;-63
2023/12/16 06:59:50;;;;;;;9.83;5.67;;;7.60;99.90;;;;;;5040062;28;20331;-62
2023/12/16 07:02:19;;;;;;;17.40;5.80;;;7.50;99.90;;;;;;5026949;28;20239;-61
2023/12/16 07:04:47;;;;;;;17.13;6.00;;;7.40;99.90;;;;;;5027735;28;20296;-63
2023/12/16 07:07:16;;;;;;;15.93;5.87;;;7.40;99.90;;;;;;5042876;28;20202;-63
2023/12/16 07:09:44;;;;;;;16.93;6.33;;;7.50;99.90;;;;;;5044921;28;20269;-63
2023/12/16 07:12:13;;;;;;;20.70;6.57;;;7.50;99.90;;;;;;5041366;28;20298;-63
2023/12/16 07:14:43;;;;;;;18.73;6.70;;;7.50;99.90;;;;;;5038367;28;20715;-62
2023/12/16 07:17:13;;;;;;;12.17;5.93;;;7.60;99.90;;;;;;5043149;28;20750;-63
2023/12/16 07:19:41;;;;;;;17.63;6.53;;;7.50;99.90;;;;;;5109805;28;20225;-62
2023/12/16 07:22:10;;;;;;;20.27;6.40;;;7.60;99.90;;;;;;5109736;28;20679;-63
2023/12/16 07:24:39;;;;;;;15.40;6.17;;;7.60;99.90;;;;;;5113778;27;20225;-63
2023/12/16 07:27:07;;;;;;;20.50;5.70;;;7.50;99.90;;;;;;5120806;27;20205;-63
2023/12/16 07:29:36;;;;;;;13.80;6.77;;;7.60;99.90;;;;;;5116617;27;20205;-63
2023/12/16 07:32:05;;;;;;;19.17;5.97;;;7.60;99.90;;;;;;5119727;27;20652;-64
2023/12/16 07:34:35;;;;;;;20.07;7.00;;;7.50;99.90;;;;;;5124783;27;20298;-65
2023/12/16 07:37:04;;;;;;;15.60;6.27;;;7.60;99.90;;;;;;5125506;27;20199;-64
2023/12/16 07:39:33;;;;;;;20.03;6.43;;;7.70;99.90;;;;;;5130628;27;20719;-63
2023/12/16 07:42:01;;;;;;;15.83;5.83;;;7.70;99.90;;;;;;5129968;27;20317;-62
2023/12/16 07:44:30;;;;;;;17.00;6.87;;;7.70;99.90;;;;;;5130366;27;20280;-62
2023/12/16 07:46:58;;;;;;;17.67;5.97;;;7.70;99.90;;;;;;5130232;27;20210;-63
2023/12/16 07:49:26;;;;;;;16.53;6.63;;;7.70;99.90;;;;;;5130241;27;20234;-63
2023/12/16 07:51:57;;;;;;;14.17;5.97;;;7.70;99.90;;;;;;5130400;27;20779;-63
2023/12/16 07:54:27;;;;;;;16.77;6.20;;;7.80;99.90;;;;;;5130175;27;20198;-62
2023/12/16 07:56:56;;;;;;;17.40;6.50;;;7.80;99.90;;;;;;5129436;27;20594;-61
2023/12/16 07:59:25;;;;;;;12.63;6.43;;;7.90;99.90;;;;;;5130125;27;20267;-61
2023/12/16 08:01:55;;;;;;;13.33;6.60;;;7.80;99.90;;;;;;5130067;27;20214;-63
2023/12/16 08:04:24;;;;;;;13.63;6.50;;;7.90;99.90;;;;;;5129956;27;20685;-62
2023/12/16 08:06:52;;;;;;;14.43;6.27;;;7.80;99.90;;;;;;5129735;27;20201;-63
2023/12/16 08:09:22;;;;;;;13.73;7.17;;;7.70;99.90;;;;;;5130076;27;20233;-63
2023/12/16 08:11:57;;;;;;;14.20;7.33;;;7.70;99.90;;;;;;5128380;27;20637;-61
2023/12/16 08:14:26;;;;;;;14.27;9.43;;;7.70;99.90;;;;;;5128286;27;20194;-62
2023/12/16 08:16:55;;;;;;;14.00;7.53;;;7.70;99.90;;;;;;5128451;27;20850;-64
2023/12/16 08:19:23;;;;;;;19.13;6.47;;;7.80;99.90;;;;;;5125782;27;20578;-63
2023/12/16 08:21:52;;;;;;;14.27;7.57;;;7.90;99.90;;;;;;5128624;27;20355;-61
2023/12/16 08:24:22;;;;;;;14.03;6.50;;;7.80;99.90;;;;;;5129630;27;20191;-62
2023/12/16 08:26:51;;;;;;;12.53;6.03;;;7.80;99.90;;;;;;5129609;27;20529;-63
2023/12/16 08:29:19;;;;;;;12.23;6.63;;;7.80;99.90;;;;;;5129996;28;20734;-63
2023/12/16 08:31:47;;;;;;;10.23;6.67;;;7.80;99.90;;;;;;5129750;28;20201;-63
2023/12/16 08:34:16;;;;;;;11.53;6.57;;;7.90;99.90;;;;;;5129410;28;20189;-63
2023/12/16 08:36:44;;;;;;;17.67;8.00;;;7.80;99.90;;;;;;5129584;28;20203;-62
2023/12/16 08:39:13;;;;;;;13.60;7.03;;;7.90;99.90;;;;;;5129721;28;20213;-63
2023/12/16 08:41:43;;;;;;;17.83;6.77;;;8.00;99.90;;;;;;5128882;28;20915;-63
2023/12/16 08:44:13;;;;;;;12.53;6.37;;;8.00;99.90;;;;;;5129606;28;21045;-61
2023/12/16 08:46:42;;;;;;;13.40;7.50;;;7.90;99.90;;;;;;5129678;28;20231;-63
2023/12/16 08:49:11;;;;;;;11.07;6.17;;;7.80;99.90;;;;;;5129154;28;20586;-63
2023/12/16 08:51:40;;;;;;;13.23;6.67;;;7.80;99.90;;;;;;5129409;28;20235;-64
2023/12/16 08:54:09;;;;;;;11.50;6.30;;;7.90;99.90;;;;;;5129499;28;20209;-62
2023/12/16 08:56:37;;;;;;;11.87;6.30;;;7.80;99.90;;;;;;5128948;28;20197;-62
2023/12/16 08:59:07;;;;;;;9.87;5.90;;;7.90;99.90;;;;;;5129535;28;20217;-62
2023/12/16 09:01:36;;;;;;;13.53;8.00;;;7.90;99.90;;;;;;5127999;27;20232;-62
2023/12/16 09:04:05;;;;;;;7.67;6.13;;;8.00;99.90;;;;;;5117394;28;20199;-61
2023/12/16 09:06:37;;;;;;;9.23;6.50;;;8.00;99.90;;;;;;5129479;28;20265;-62
2023/12/16 09:09:06;;;;;;;11.57;7.20;;;7.90;99.90;;;;;;5128899;28;20851;-61
2023/12/16 09:11:35;;;;;;;8.20;6.10;;;8.00;99.90;;;;;;5129447;28;20197;-62
2023/12/16 09:14:05;;;;;;;8.07;7.00;;;7.90;99.90;;;;;;5129460;28;20305;-64
2023/12/16 09:16:36;;;;;;;9.67;6.03;;;7.90;99.90;;;;;;5129322;28;20645;-63
2023/12/16 09:19:07;;;;;;;13.13;7.00;;;7.90;99.90;;;;;;5115106;27;20199;-62
2023/12/16 09:21:35;;;;;;;15.90;7.03;;;8.00;99.90;;;;;;5108445;28;20249;-64
2023/12/16 09:24:06;;;;;;;13.60;8.27;;;8.00;99.90;;;;;;5108795;28;20209;-65
2023/12/16 09:26:34;;;;;;;17.37;6.57;;;8.00;99.90;;;;;;5109607;28;20207;-64
2023/12/16 09:29:05;;;;;;;9.50;6.77;;;8.00;99.90;;;;;;5112074;28;20251;-64
2023/12/16 09:31:35;;;;;;;13.77;7.00;;;8.10;99.90;;;;;;5114636;27;20989;-65
2023/12/16 09:34:04;;;;;;;15.10;7.00;;;8.10;99.90;;;;;;5118930;27;20279;-64
2023/12/16 09:36:33;;;;;;;16.50;6.47;;;8.10;99.90;;;;;;5128476;27;20193;-63
2023/12/16 09:39:02;;;;;;;12.73;6.40;;;8.00;99.90;;;;;;5111611;28;20187;-63
2023/12/16 09:41:31;;;;;;;15.50;6.67;;;8.00;99.90;;;;;;5111402;28;20244;-62
2023/12/16 09:44:03;;;;;;;10.17;6.60;;;8.10;99.90;;;;;;5111794;28;20204;-63
2023/12/16 09:46:33;;;;;;;12.23;5.97;;;8.00;99.90;;;;;;5111613;28;20197;-63
2023/12/16 09:49:03;;;;;;;16.07;6.80;;;7.90;99.90;;;;;;5111418;28;20275;-65
2023/12/16 09:51:32;;;;;;;14.47;6.87;;;8.00;99.90;;;;;;5111711;28;20186;-65
2023/12/16 09:54:02;;;;;;;17.83;6.67;;;8.10;99.90;;;;;;5110704;28;20205;-66
2023/12/16 09:56:31;;;;;;;18.20;9.67;;;8.20;99.90;;;;;;5123365;27;20278;-66
2023/12/16 09:59:01;;;;;;;13.33;7.20;;;8.10;99.90;;;;;;5132027;27;20190;-66
2023/12/16 10:01:29;;;;;;;15.30;6.93;;;8.20;99.90;;;;;;5131954;27;20737;-66
2023/12/16 10:03:59;;;;;;;16.73;6.87;;;8.20;99.90;;;;;;5132083;27;20221;-66
2023/12/16 10:06:30;;;;;;;17.07;6.97;;;8.10;99.90;;;;;;5088251;28;20214;-66
2023/12/16 10:08:59;;;;;;;17.43;7.00;;;8.20;99.90;;;;;;5088472;28;20211;-66
2023/12/16 10:11:28;;;;;;;13.37;6.43;;;8.20;99.90;;;;;;5088611;28;20294;-65
2023/12/16 10:13:59;;;;;;;16.80;6.67;;;8.30;99.90;;;;;;5088612;28;20214;-65
2023/12/16 10:16:28;;;;;;;16.53;6.80;;;8.20;99.90;;;;;;5088487;28;20560;-63
2023/12/16 10:18:58;;;;;;;16.50;6.80;;;8.20;99.90;;;;;;4988660;28;20209;-64
2023/12/16 10:21:31;;;;;;;14.60;6.57;;;8.20;99.90;;;;;;4988646;28;20320;-64
2023/12/16 10:24:01;;;;;;;15.73;7.27;;;8.20;99.90;;;;;;5000402;28;20202;-65
2023/12/16 10:26:31;;;;;;;13.30;7.03;;;8.30;99.90;;;;;;5047762;28;20207;-64
2023/12/16 10:29:04;;;;;;;14.83;6.23;;;8.30;99.90;;;;;;5047870;28;21035;-65
2023/12/16 10:31:33;;;;;;;16.60;6.70;;;8.30;99.90;;;;;;5047878;28;20222;-64
2023/12/16 10:34:02;;;;;;;21.50;6.97;;;8.20;99.90;;;;;;5047792;28;20757;-65
2023/12/16 10:36:33;;;;;;;21.03;7.33;;;8.10;99.90;;;;;;5066149;27;20314;-66
2023/12/16 10:39:02;;;;;;;18.30;7.00;;;8.20;99.90;;;;;;5130544;27;20189;-65
2023/12/16 10:41:30;;;;;;;15.73;7.83;;;8.20;99.90;;;;;;5131125;27;20341;-65
2023/12/16 10:43:59;;;;;;;19.30;8.10;;;8.30;99.90;;;;;;5131376;27;20832;-65
2023/12/16 10:46:36;;;;;;;14.93;7.10;;;8.20;99.90;;;;;;5131568;27;20205;-64
2023/12/16 10:49:10;;;;;;;13.83;7.07;;;8.10;99.90;;;;;;5131654;27;20287;-65
2023/12/16 10:51:44;;;;;;;18.50;7.73;;;8.20;99.90;;;;;;5131316;27;20283;-64
2023/12/16 10:54:18;;;;;;;18.43;7.27;;;8.20;99.90;;;;;;5131598;27;20187;-66
2023/12/16 10:56:59;;;;;;;14.47;7.00;;;8.20;99.90;;;;;;5131454;27;20284;-64
2023/12/16 10:59:33;;;;;;;15.80;7.30;;;8.10;99.90;;;;;;5131267;27;20194;-62
2023/12/16 11:02:07;;;;;;;22.40;7.90;;;8.20;99.90;;;;;;5130945;27;20312;-64
2023/12/16 11:04:38;;;;;;;18.23;7.57;;;8.20;99.90;;;;;;5131182;27;20200;-65
2023/12/16 11:07:11;;;;;;;20.17;7.07;;;8.10;99.90;;;;;;5131185;27;20504;-66
2023/12/16 11:09:40;;;;;;;20.57;8.13;;;8.10;99.90;;;;;;5131041;27;20560;-65
2023/12/16 11:12:10;;;;;;;20.03;7.47;;;8.20;99.90;;;;;;5130800;27;20285;-63
2023/12/16 11:14:40;;;;;;;16.60;6.77;;;8.10;99.90;;;;;;5130733;27;20188;-65
2023/12/16 11:17:16;;;;;;;16.07;7.47;;;8.20;99.90;;;;;;5130720;27;20218;-63
2023/12/16 11:19:49;;;;;;;18.37;7.70;;;8.20;99.90;;;;;;5130433;27;20340;-65
2023/12/16 11:22:25;;;;;;;18.60;8.73;;;8.10;99.90;;;;;;5130412;27;20216;-64
2023/12/16 11:24:54;;;;;;;19.43;6.90;;;8.10;99.90;;;;;;5130401;27;20666;-66
2023/12/16 11:27:22;;;;;;;16.00;7.67;;;8.20;99.90;;;;;;5130360;27;20189;-64
2023/12/16 11:29:51;;;;;;;15.13;6.40;;;8.10;99.90;;;;;;5130625;27;20196;-66
2023/12/16 11:32:20;;;;;;;14.87;6.73;;;8.10;99.90;;;;;;5130449;27;20209;-67
2023/12/16 11:34:50;;;;;;;19.33;6.67;;;8.30;99.90;;;;;;5130180;27;20228;-66
2023/12/16 11:37:44;;;;;;;17.57;6.97;;;8.20;99.90;;;;;;5130370;27;20201;-65
2023/12/16 11:40:41;;;;;;;22.47;7.43;;;8.10;99.90;;;;;;5130391;27;20202;-65
2023/12/16 11:43:10;;;;;;;12.00;5.80;;;8.30;99.90;;;;;;5129959;27;20793;-66
2023/12/16 11:45:40;;;;;;;13.53;6.60;;;8.20;99.90;;;;;;5130080;27;20207;-66
2023/12/16 11:48:10;;;;;;;21.10;6.40;;;8.20;99.90;;;;;;5130271;27;20221;-65
2023/12/16 11:50:41;;;;;;;14.70;6.60;;;8.20;99.90;;;;;;5129575;27;20225;-66
2023/12/16 11:53:12;;;;;;;12.83;6.40;;;8.20;99.90;;;;;;5129985;27;20201;-66
2023/12/16 11:55:42;;;;;;;13.20;6.47;;;8.30;99.90;;;;;;5129951;27;20194;-65
2023/12/16 11:58:12;;;;;;;15.73;6.57;;;8.40;99.90;;;;;;5129808;27;20194;-66
2023/12/16 12:00:41;;;;;;;11.53;6.73;;;8.20;99.90;;;;;;5129636;27;20192;-66
2023/12/16 12:03:10;;;;;;;18.07;6.87;;;8.20;99.90;;;;;;5129428;27;20286;-64
2023/12/16 12:05:39;;;;;;;14.10;7.10;;;8.20;99.90;;;;;;5129704;27;20197;-66
2023/12/16 12:08:07;;;;;;;16.03;6.70;;;8.20;99.90;;;;;;5129468;27;20730;-66
2023/12/16 12:10:37;;;;;;;14.67;6.97;;;8.10;99.90;;;;;;5128313;27;20200;-65
2023/12/16 12:13:06;;;;;;;12.47;6.63;;;8.30;99.90;;;;;;5127422;27;20275;-64
2023/12/16 12:15:34;;;;;;;16.83;6.70;;;8.20;99.90;;;;;;5122986;27;20203;-66
2023/12/16 12:18:05;;;;;;;11.67;6.67;;;8.20;99.90;;;;;;5108847;28;20193;-66
2023/12/16 12:20:33;;;;;;;14.57;6.37;;;8.20;99.90;;;;;;5108773;28;20300;-65
2023/12/16 12:23:02;;;;;;;21.43;7.37;;;8.20;99.90;;;;;;5108766;28;20754;-66
2023/12/16 12:25:31;;;;;;;14.47;6.53;;;8.20;99.90;;;;;;5108814;28;20293;-63
2023/12/16 12:28:08;;;;;;;21.90;9.30;;;8.20;99.90;;;;;;5116575;28;20271;-63
2023/12/16 12:30:37;;;;;;;16.70;6.63;;;8.20;99.90;;;;;;5129282;28;20188;-67
2023/12/16 12:33:06;;;;;;;12.83;6.47;;;8.30;99.90;;;;;;5129104;28;20681;-65
2023/12/16 12:35:35;;;;;;;12.20;6.20;;;8.40;99.90;;;;;;5129099;28;20192;-66
2023/12/16 12:38:04;;;;;;;11.40;6.03;;;8.40;99.90;;;;;;5129301;28;20200;-64
2023/12/16 12:40:32;;;;;;;12.90;6.23;;;8.40;99.90;;;;;;5129055;28;20188;-66
2023/12/16 12:43:02;;;;;;;12.63;5.93;;;8.50;99.90;;;;;;5129014;28;20298;-66
2023/12/16 12:45:32;;;;;;;15.97;6.13;;;8.40;99.90;;;;;;5129197;28;20539;-64
2023/12/16 12:48:11;;;;;;;11.50;6.20;;;8.50;99.90;;;;;;5128977;28;20715;-65
2023/12/16 12:50:41;;;;;;;12.73;6.47;;;8.60;99.90;;;;;;5128849;28;20986;-66
2023/12/16 12:53:17;;;;;;;11.50;7.40;;;8.60;99.90;;;;;;5128990;28;20228;-64
2023/12/16 12:55:49;;;;;;;11.40;6.73;;;8.60;99.90;;;;;;5129012;28;20324;-64
2023/12/16 12:58:19;;;;;;;15.50;6.70;;;8.50;99.90;;;;;;5128787;28;20206;-67
2023/12/16 13:00:54;;;;;;;15.13;6.30;;;8.50;99.90;;;;;;5129078;27;20289;-66